createdAt,value
2023-05-09T00:00:14.863Z,100813.81
2023-05-09T00:03:06.156Z,100808.97
2023-05-09T00:05:55.459Z,100808.50
2023-05-09T00:08:44.742Z,100798.16
2023-05-09T00:11:34.226Z,100794.63
2023-05-09T00:14:24.927Z,100788.50
2023-05-09T00:17:15.840Z,100783.00
2023-05-09T00:20:09.012Z,100790.63
2023-05-09T00:22:58.229Z,100804.84
2023-05-09T00:25:47.568Z,100804.72
2023-05-09T00:28:37.044Z,100803.91
2023-05-09T00:31:26.351Z,100801.00
2023-05-09T00:34:16.977Z,100784.25
2023-05-09T00:37:06.481Z,100802.69
2023-05-09T00:39:55.704Z,100793.94
2023-05-09T00:42:45.205Z,100807.88
2023-05-09T00:45:34.555Z,100810.31
2023-05-09T00:48:23.980Z,100812.88
2023-05-09T00:51:15.010Z,100813.06
2023-05-09T00:54:06.459Z,100797.72
2023-05-09T00:56:57.040Z,100805.97
2023-05-09T00:59:46.426Z,100809.84
2023-05-09T01:02:35.856Z,100810.16
2023-05-09T01:05:38.839Z,100811.50
2023-05-09T01:08:45.492Z,100809.09
2023-05-09T01:11:43.049Z,100817.19
2023-05-09T01:14:45.916Z,100805.72
2023-05-09T01:17:45.263Z,100811.22
2023-05-09T01:20:40.697Z,100812.47
2023-05-09T01:24:00.734Z,100809.94
2023-05-09T01:27:13.135Z,100806.38
2023-05-09T01:30:07.155Z,100812.88
2023-05-09T01:33:02.415Z,100816.56
2023-05-09T01:35:59.388Z,100811.28
2023-05-09T01:38:53.177Z,100805.94
2023-05-09T01:41:42.735Z,100812.25
2023-05-09T01:44:37.692Z,100799.00
2023-05-09T01:47:29.719Z,100789.34
2023-05-09T01:50:21.143Z,100801.63
2023-05-09T01:53:14.411Z,100807.13
2023-05-09T01:56:05.971Z,100796.63
2023-05-09T01:58:57.011Z,100792.59
2023-05-09T02:01:48.343Z,100795.31
2023-05-09T02:04:40.125Z,100790.34
2023-05-09T02:07:31.317Z,100790.13
2023-05-09T02:10:21.993Z,100792.75
2023-05-09T02:13:11.759Z,100763.22
2023-05-09T02:16:02.142Z,100770.34
2023-05-09T02:18:52.836Z,100785.47
2023-05-09T02:21:43.626Z,100779.03
2023-05-09T02:24:35.209Z,100790.03
2023-05-09T02:27:24.911Z,100776.63
2023-05-09T02:30:20.707Z,100777.75
2023-05-09T02:33:13.794Z,100775.66
2023-05-09T02:36:06.057Z,100784.38
2023-05-09T02:38:57.294Z,100775.03
2023-05-09T02:41:50.626Z,100768.56
2023-05-09T02:44:41.054Z,100778.06
2023-05-09T02:47:30.325Z,100773.72
2023-05-09T02:50:21.186Z,100772.44
2023-05-09T02:53:10.923Z,100768.09
2023-05-09T02:56:04.107Z,100771.47
2023-05-09T02:58:53.668Z,100766.78
2023-05-09T03:01:43.016Z,100766.16
2023-05-09T03:04:33.528Z,100770.53
2023-05-09T03:07:23.226Z,100774.53
2023-05-09T03:10:12.871Z,100768.91
2023-05-09T03:13:04.081Z,100772.00
2023-05-09T03:15:53.483Z,100766.31
2023-05-09T03:18:43.479Z,100771.00
2023-05-09T03:21:33.146Z,100772.81
2023-05-09T03:24:23.272Z,100770.22
2023-05-09T03:27:12.996Z,100763.75
2023-05-09T03:30:03.697Z,100770.09
2023-05-09T03:32:53.323Z,100772.16
2023-05-09T03:35:42.720Z,100768.94
2023-05-09T03:38:32.295Z,100768.13
2023-05-09T03:41:22.183Z,100765.41
2023-05-09T03:44:11.734Z,100761.00
2023-05-09T03:47:02.582Z,100759.09
2023-05-09T03:49:58.377Z,100766.50
2023-05-09T03:52:48.152Z,100765.22
2023-05-09T03:55:39.962Z,100757.78
2023-05-09T03:58:31.546Z,100762.00
2023-05-09T04:01:22.177Z,100755.22
2023-05-09T04:04:13.009Z,100755.72
2023-05-09T04:07:02.502Z,100757.81
2023-05-09T04:09:52.493Z,100752.97
2023-05-09T04:12:42.391Z,100752.81
2023-05-09T04:15:32.366Z,100760.22
2023-05-09T04:18:22.719Z,100749.09
2023-05-09T04:21:13.376Z,100744.75
2023-05-09T04:24:03.696Z,100742.63
2023-05-09T04:26:59.304Z,100741.31
2023-05-09T04:29:49.448Z,100741.97
2023-05-09T04:32:39.805Z,100742.91
2023-05-09T04:35:29.751Z,100741.94
2023-05-09T04:38:21.444Z,100739.84
2023-05-09T04:41:11.792Z,100735.78
2023-05-09T04:44:02.163Z,100734.97
2023-05-09T04:46:52.276Z,100729.31
2023-05-09T04:49:42.045Z,100732.03
2023-05-09T04:52:31.438Z,100723.13
2023-05-09T04:55:22.237Z,100727.78
2023-05-09T04:58:12.783Z,100728.75
2023-05-09T05:01:02.200Z,100727.91
2023-05-09T05:03:51.481Z,100724.47
2023-05-09T05:06:40.798Z,100718.47
2023-05-09T05:09:30.725Z,100723.44
2023-05-09T05:12:21.939Z,100724.06
2023-05-09T05:15:13.863Z,100723.56
2023-05-09T05:18:06.355Z,100727.69
2023-05-09T05:20:57.883Z,100720.75
2023-05-09T05:23:48.454Z,100719.75
2023-05-09T05:26:38.787Z,100723.16
2023-05-09T05:29:29.606Z,100715.38
2023-05-09T05:32:19.003Z,100721.69
2023-05-09T05:35:10.748Z,100722.72
2023-05-09T05:38:00.451Z,100728.19
2023-05-09T05:40:50.900Z,100725.75
2023-05-09T05:43:40.282Z,100727.13
2023-05-09T05:46:31.622Z,100719.06
2023-05-09T05:49:21.250Z,100719.06
2023-05-09T05:52:10.787Z,100712.13
2023-05-09T05:55:00.391Z,100724.53
2023-05-09T05:57:49.871Z,100717.22
2023-05-09T06:00:39.280Z,100716.25
2023-05-09T06:03:32.316Z,100722.72
2023-05-09T06:06:25.924Z,100704.31
2023-05-09T06:09:16.830Z,100726.22
2023-05-09T06:12:07.410Z,100725.03
2023-05-09T06:14:56.790Z,100725.03
2023-05-09T06:17:46.217Z,100725.03
2023-05-09T06:20:37.080Z,100736.78
2023-05-09T06:23:26.455Z,100724.16
2023-05-09T06:26:15.698Z,100733.16
2023-05-09T06:29:07.809Z,100725.09
2023-05-09T06:31:57.286Z,100736.97
2023-05-09T06:34:46.702Z,100731.00
2023-05-09T06:37:37.447Z,100721.47
2023-05-09T06:40:26.925Z,100730.94
2023-05-09T06:43:16.524Z,100726.50
2023-05-09T06:46:05.972Z,100722.72
2023-05-09T06:48:55.259Z,100725.09
2023-05-09T06:51:44.718Z,100729.03
2023-05-09T06:54:35.422Z,100730.69
2023-05-09T06:57:25.034Z,100738.06
2023-05-09T07:00:16.550Z,100726.94
2023-05-09T07:03:07.798Z,100730.63
2023-05-09T07:05:59.103Z,100728.59
2023-05-09T07:08:48.646Z,100728.19
2023-05-09T07:11:39.591Z,100737.84
2023-05-09T07:14:28.990Z,100723.47
2023-05-09T07:17:23.536Z,100728.22
2023-05-09T07:20:13.668Z,100727.28
2023-05-09T07:23:04.272Z,100729.47
2023-05-09T07:25:58.994Z,100733.03
2023-05-09T07:28:49.689Z,100732.09
2023-05-09T07:31:38.951Z,100735.75
2023-05-09T07:34:28.771Z,100732.63
2023-05-09T07:37:18.081Z,100739.00
2023-05-09T07:40:09.225Z,100742.97
2023-05-09T07:42:58.803Z,100739.09
2023-05-09T07:45:49.583Z,100745.09
2023-05-09T07:48:38.913Z,100739.88
2023-05-09T07:51:28.130Z,100738.56
2023-05-09T07:54:17.519Z,100733.50
2023-05-09T07:57:06.840Z,100734.66
2023-05-09T07:59:56.348Z,100733.47
2023-05-09T08:02:47.224Z,100730.97
2023-05-09T08:05:36.568Z,100728.19
2023-05-09T08:08:25.913Z,100737.56
2023-05-09T08:11:15.312Z,100728.94
2023-05-09T08:14:04.814Z,100720.38
2023-05-09T08:16:54.409Z,100729.19
2023-05-09T08:19:45.154Z,100735.81
2023-05-09T08:22:34.635Z,100727.22
2023-05-09T08:25:23.929Z,100726.56
2023-05-09T08:28:13.434Z,100727.38
2023-05-09T08:31:02.806Z,100728.00
2023-05-09T08:33:52.121Z,100736.94
2023-05-09T08:36:45.612Z,100728.00
2023-05-09T08:39:35.692Z,100713.53
2023-05-09T08:42:26.653Z,100719.25
2023-05-09T08:45:17.659Z,100728.59
2023-05-09T08:48:08.302Z,100719.53
2023-05-09T08:50:58.342Z,100719.38
2023-05-09T08:53:49.662Z,100704.31
2023-05-09T08:56:38.996Z,100710.81
2023-05-09T08:59:29.407Z,100706.25
2023-05-09T09:02:18.801Z,100711.16
2023-05-09T09:05:19.545Z,100700.03
2023-05-09T09:08:19.272Z,100697.41
2023-05-09T09:11:14.580Z,100678.81
2023-05-09T09:14:08.087Z,100690.38
2023-05-09T09:16:59.771Z,100686.66
2023-05-09T09:19:53.777Z,100682.97
2023-05-09T09:22:45.681Z,100686.88
2023-05-09T09:25:34.840Z,100681.84
2023-05-09T09:28:25.723Z,100675.81
2023-05-09T09:31:22.487Z,100673.66
2023-05-09T09:34:11.759Z,100672.06
2023-05-09T09:37:01.246Z,100669.97
2023-05-09T09:39:59.381Z,100663.66
2023-05-09T09:42:49.531Z,100674.09
2023-05-09T09:45:43.897Z,100662.88
2023-05-09T09:48:34.892Z,100648.03
2023-05-09T09:51:24.092Z,100666.16
2023-05-09T09:54:14.618Z,100659.13
2023-05-09T09:57:04.092Z,100652.38
2023-05-09T10:00:01.248Z,100671.50
2023-05-09T10:02:54.085Z,100662.78
2023-05-09T10:05:43.124Z,100662.31
2023-05-09T10:08:32.480Z,100658.38
2023-05-09T10:11:22.378Z,100658.38
2023-05-09T10:14:11.790Z,100658.72
2023-05-09T10:17:04.266Z,100641.59
2023-05-09T10:19:56.600Z,100657.53
2023-05-09T10:22:46.965Z,100653.13
2023-05-09T10:25:42.173Z,100650.63
2023-05-09T10:28:37.182Z,100663.31
2023-05-09T10:31:29.597Z,100663.22
2023-05-09T10:34:21.090Z,100652.50
2023-05-09T10:37:12.735Z,100660.63
2023-05-09T10:40:05.177Z,100654.00
2023-05-09T10:42:54.457Z,100648.44
2023-05-09T10:45:44.654Z,100645.69
2023-05-09T10:48:34.675Z,100657.28
2023-05-09T10:51:25.764Z,100650.84
2023-05-09T10:54:31.058Z,100633.66
2023-05-09T10:57:22.714Z,100647.19
2023-05-09T11:00:14.156Z,100647.56
2023-05-09T11:03:09.882Z,100630.38
2023-05-09T11:06:00.210Z,100635.25
2023-05-09T11:08:49.682Z,100622.16
2023-05-09T11:11:53.962Z,100624.97
2023-05-09T11:14:45.817Z,100621.72
2023-05-09T11:17:39.304Z,100624.00
2023-05-09T11:20:30.470Z,100613.94
2023-05-09T11:23:21.685Z,100614.94
2023-05-09T11:26:11.280Z,100615.50
2023-05-09T11:29:02.971Z,100616.09
2023-05-09T11:32:14.308Z,100605.47
2023-05-09T11:35:12.278Z,100606.38
2023-05-09T11:38:04.335Z,100597.69
2023-05-09T11:40:54.984Z,100598.13
2023-05-09T11:43:45.698Z,100605.06
2023-05-09T11:46:36.418Z,100593.66
2023-05-09T11:49:25.634Z,100602.31
2023-05-09T11:52:14.954Z,100597.66
2023-05-09T11:55:04.446Z,100598.28
2023-05-09T11:57:55.677Z,100600.31
2023-05-09T12:00:46.727Z,100599.97
2023-05-09T12:03:37.452Z,100594.94
2023-05-09T12:06:28.302Z,100593.94
2023-05-09T12:09:20.081Z,100593.25
2023-05-09T12:12:13.131Z,100597.78
2023-05-09T12:15:05.806Z,100589.84
2023-05-09T12:18:06.168Z,100588.31
2023-05-09T12:20:57.007Z,100590.28
2023-05-09T12:23:49.760Z,100584.34
2023-05-09T12:26:41.317Z,100583.13
2023-05-09T12:29:33.434Z,100583.09
2023-05-09T12:32:22.978Z,100582.72
2023-05-09T12:35:12.619Z,100583.50
2023-05-09T12:38:03.714Z,100586.31
2023-05-09T12:41:03.973Z,100584.69
2023-05-09T12:43:53.521Z,100565.13
2023-05-09T12:46:43.071Z,100584.19
2023-05-09T12:49:33.447Z,100579.84
2023-05-09T12:52:22.966Z,100577.94
2023-05-09T12:55:15.990Z,100582.75
2023-05-09T12:58:05.778Z,100574.75
2023-05-09T13:00:56.700Z,100577.19
2023-05-09T13:03:46.112Z,100571.56
2023-05-09T13:06:36.333Z,100577.97
2023-05-09T13:09:27.640Z,100577.16
2023-05-09T13:12:20.795Z,100579.94
2023-05-09T13:15:13.682Z,100584.22
2023-05-09T13:18:03.156Z,100573.13
2023-05-09T13:20:52.561Z,100522.97
2023-05-09T13:23:42.328Z,100583.53
2023-05-09T13:26:32.075Z,100567.59
2023-05-09T13:29:22.721Z,100575.94
2023-05-09T13:32:12.076Z,100570.41
2023-05-09T13:35:01.369Z,100562.00
2023-05-09T13:37:51.042Z,100563.53
2023-05-09T13:40:40.610Z,100570.66
2023-05-09T13:43:30.824Z,100570.94
2023-05-09T13:46:21.435Z,100569.75
2023-05-09T13:49:10.780Z,100572.16
2023-05-09T13:52:00.128Z,100558.22
2023-05-09T13:54:49.396Z,100568.22
2023-05-09T13:57:38.718Z,100566.31
2023-05-09T14:00:28.070Z,100562.72
2023-05-09T14:03:18.709Z,100550.78
2023-05-09T14:06:09.387Z,100563.91
2023-05-09T14:08:58.833Z,100552.34
2023-05-09T14:11:48.267Z,100555.94
2023-05-09T14:14:37.698Z,100553.53
2023-05-09T14:17:27.133Z,100557.03
2023-05-09T14:20:17.980Z,100560.16
2023-05-09T14:23:07.271Z,100566.44
2023-05-09T14:25:56.554Z,100588.94
2023-05-09T14:28:45.923Z,100603.84
2023-05-09T14:31:35.362Z,100597.91
2023-05-09T14:34:24.891Z,100601.63
2023-05-09T14:37:15.802Z,100605.38
2023-05-09T14:40:05.827Z,100619.09
2023-05-09T14:42:55.194Z,100623.09
2023-05-09T14:45:44.452Z,100612.78
2023-05-09T14:48:34.619Z,100621.22
2023-05-09T14:51:24.395Z,100608.03
2023-05-09T14:54:15.822Z,100596.91
2023-05-09T14:57:07.527Z,100603.94
2023-05-09T15:00:03.142Z,100596.47
2023-05-09T15:02:58.387Z,100593.75
2023-05-09T15:05:47.717Z,100599.44
2023-05-09T15:08:36.986Z,100591.94
2023-05-09T15:11:28.740Z,100586.81
2023-05-09T15:14:20.282Z,100595.13
2023-05-09T15:17:09.619Z,100596.78
2023-05-09T15:19:59.193Z,100582.88
2023-05-09T15:22:49.881Z,100587.56
2023-05-09T15:25:39.414Z,100589.44
2023-05-09T15:28:30.432Z,100575.84
2023-05-09T15:31:21.710Z,100594.91
2023-05-09T15:34:11.072Z,100582.84
2023-05-09T15:37:01.114Z,100585.47
2023-05-09T15:39:50.351Z,100581.25
2023-05-09T15:42:40.565Z,100574.78
2023-05-09T15:45:31.366Z,100570.72
2023-05-09T15:48:21.377Z,100573.53
2023-05-09T15:51:10.705Z,100563.44
2023-05-09T15:54:00.060Z,100572.66
2023-05-09T15:56:49.588Z,100565.53
2023-05-09T15:59:39.051Z,100554.97
2023-05-09T16:02:30.047Z,100557.97
2023-05-09T16:05:19.772Z,100562.88
2023-05-09T16:08:09.204Z,100552.69
2023-05-09T16:11:00.930Z,100556.72
2023-05-09T16:13:50.184Z,100562.72
2023-05-09T16:16:39.889Z,100555.09
2023-05-09T16:19:31.244Z,100560.53
2023-05-09T16:22:21.069Z,100542.47
2023-05-09T16:25:12.516Z,100560.13
2023-05-09T16:28:01.737Z,100563.78
2023-05-09T16:30:51.543Z,100566.09
2023-05-09T16:33:40.882Z,100568.88
2023-05-09T16:36:32.903Z,100586.97
2023-05-09T16:39:23.839Z,100612.53
2023-05-09T16:42:13.141Z,100602.50
2023-05-09T16:45:02.460Z,100603.06
2023-05-09T16:47:53.422Z,100615.00
2023-05-09T16:50:44.332Z,100618.63
2023-05-09T16:53:34.963Z,100609.38
2023-05-09T16:56:24.239Z,100585.03
2023-05-09T16:59:13.576Z,100615.94
2023-05-09T17:02:04.583Z,100606.06
2023-05-09T17:04:54.047Z,100596.19
2023-05-09T17:07:49.632Z,100608.03
2023-05-09T17:10:42.088Z,100596.91
2023-05-09T17:13:31.563Z,100582.09
2023-05-09T17:16:20.934Z,100603.13
2023-05-09T17:19:10.284Z,100613.09
2023-05-09T17:22:04.274Z,100600.00
2023-05-09T17:24:53.712Z,100610.34
2023-05-09T17:27:44.340Z,100609.72
2023-05-09T17:30:33.837Z,100608.69
2023-05-09T17:33:23.514Z,100599.66
2023-05-09T17:36:12.936Z,100605.78
2023-05-09T17:39:02.461Z,100604.63
2023-05-09T17:41:52.162Z,100602.50
2023-05-09T17:44:44.378Z,100594.34
2023-05-09T17:47:33.981Z,100596.72
2023-05-09T17:50:23.372Z,100597.47
2023-05-09T17:53:13.151Z,100599.00
2023-05-09T17:56:02.484Z,100594.13
2023-05-09T17:58:53.191Z,100592.66
2023-05-09T18:01:44.006Z,100592.25
2023-05-09T18:04:34.492Z,100581.00
2023-05-09T18:07:24.493Z,100593.50
2023-05-09T18:10:14.096Z,100589.44
2023-05-09T18:13:03.501Z,100593.00
2023-05-09T18:15:55.296Z,100599.94
2023-05-09T18:18:46.042Z,100590.91
2023-05-09T18:21:35.570Z,100604.81
2023-05-09T18:24:24.808Z,100609.47
2023-05-09T18:27:14.106Z,100601.53
2023-05-09T18:30:03.802Z,100599.50
2023-05-09T18:32:53.569Z,100613.97
2023-05-09T18:35:44.360Z,100609.44
2023-05-09T18:38:38.243Z,100617.22
2023-05-09T18:41:29.188Z,100607.03
2023-05-09T18:44:18.557Z,100613.56
2023-05-09T18:47:07.930Z,100615.50
2023-05-09T18:49:57.351Z,100609.25
2023-05-09T18:52:48.092Z,100617.13
2023-05-09T18:55:37.297Z,100614.19
2023-05-09T18:58:26.686Z,100604.81
2023-05-09T19:01:15.955Z,100620.34
2023-05-09T19:04:05.675Z,100618.56
2023-05-09T19:06:54.978Z,100621.69
2023-05-09T19:09:45.869Z,100625.41
2023-05-09T19:12:35.559Z,100629.34
2023-05-09T19:15:24.955Z,100636.81
2023-05-09T19:18:14.348Z,100634.34
2023-05-09T19:21:04.221Z,100647.34
2023-05-09T19:23:53.498Z,100645.63
2023-05-09T19:26:44.137Z,100650.28
2023-05-09T19:29:33.467Z,100643.84
2023-05-09T19:32:22.938Z,100667.34
2023-05-09T19:35:12.724Z,100652.22
2023-05-09T19:38:01.960Z,100658.91
2023-05-09T19:40:51.281Z,100661.00
2023-05-09T19:43:42.207Z,100665.66
2023-05-09T19:46:31.591Z,100656.47
2023-05-09T19:49:20.965Z,100661.91
2023-05-09T19:52:10.328Z,100667.22
2023-05-09T19:54:59.710Z,100656.41
2023-05-09T19:57:48.942Z,100666.22
2023-05-09T20:00:39.588Z,100668.34
2023-05-09T20:03:29.206Z,100665.38
2023-05-09T20:06:20.205Z,100669.06
2023-05-09T20:09:09.589Z,100672.53
2023-05-09T20:11:59.043Z,100669.91
2023-05-09T20:14:48.275Z,100668.53
2023-05-09T20:17:38.977Z,100662.78
2023-05-09T20:20:28.506Z,100665.44
2023-05-09T20:23:17.883Z,100658.81
2023-05-09T20:26:07.335Z,100670.75
2023-05-09T20:29:01.476Z,100661.78
2023-05-09T20:31:50.990Z,100677.53
2023-05-09T20:34:41.695Z,100682.59
2023-05-09T20:37:30.959Z,100683.97
2023-05-09T20:40:20.453Z,100676.41
2023-05-09T20:43:09.978Z,100691.09
2023-05-09T20:45:59.241Z,100684.34
2023-05-09T20:48:48.634Z,100678.47
2023-05-09T20:51:39.905Z,100673.53
2023-05-09T20:54:29.333Z,100690.53
2023-05-09T20:57:18.912Z,100683.28
2023-05-09T21:00:09.999Z,100686.06
2023-05-09T21:02:59.360Z,100682.72
2023-05-09T21:05:48.766Z,100681.09
2023-05-09T21:08:40.633Z,100672.50
2023-05-09T21:11:30.000Z,100677.66
2023-05-09T21:14:19.415Z,100666.75
2023-05-09T21:17:08.808Z,100681.31
2023-05-09T21:19:58.130Z,100680.69
2023-05-09T21:22:47.335Z,100681.16
2023-05-09T21:25:37.983Z,100681.94
2023-05-09T21:28:27.300Z,100675.88
2023-05-09T21:31:16.618Z,100671.81
2023-05-09T21:34:09.944Z,100678.25
2023-05-09T21:36:59.583Z,100676.63
2023-05-09T21:39:48.847Z,100671.03
2023-05-09T21:42:40.384Z,100670.31
2023-05-09T21:45:29.666Z,100666.28
2023-05-09T21:48:18.935Z,100657.91
2023-05-09T21:51:09.455Z,100667.06
2023-05-09T21:53:58.628Z,100661.47
2023-05-09T21:56:48.109Z,100661.56
2023-05-09T21:59:38.931Z,100658.38
2023-05-09T22:02:28.697Z,100645.03
2023-05-09T22:05:18.173Z,100654.69
2023-05-09T22:08:07.499Z,100650.53
2023-05-09T22:10:57.300Z,100632.97
2023-05-09T22:13:46.505Z,100647.88
2023-05-09T22:16:37.416Z,100651.78
2023-05-09T22:19:26.874Z,100644.19
2023-05-09T22:22:16.198Z,100646.94
2023-05-09T22:25:06.264Z,100645.31
2023-05-09T22:27:56.231Z,100644.19
2023-05-09T22:30:45.511Z,100638.06
2023-05-09T22:33:36.201Z,100651.78
2023-05-09T22:36:26.812Z,100649.59
2023-05-09T22:39:16.665Z,100635.81
2023-05-09T22:42:06.752Z,100646.84
2023-05-09T22:44:56.108Z,100648.00
2023-05-09T22:47:45.417Z,100646.84
2023-05-09T22:50:36.279Z,100645.59
2023-05-09T22:53:26.198Z,100644.88
2023-05-09T22:56:15.554Z,100653.47
2023-05-09T22:59:04.799Z,100647.16
2023-05-09T23:01:54.225Z,100643.25
2023-05-09T23:04:43.446Z,100650.56
2023-05-09T23:07:34.132Z,100652.66
2023-05-09T23:10:23.603Z,100655.53
2023-05-09T23:13:12.851Z,100652.84
2023-05-09T23:16:02.833Z,100637.69
2023-05-09T23:18:52.135Z,100637.84
2023-05-09T23:21:41.536Z,100647.47
2023-05-09T23:24:32.169Z,100642.19
2023-05-09T23:27:21.789Z,100634.59
2023-05-09T23:30:12.329Z,100626.09
2023-05-09T23:33:04.365Z,100636.78
2023-05-09T23:35:53.629Z,100622.75
2023-05-09T23:38:42.913Z,100621.72
2023-05-09T23:41:33.586Z,100626.16
2023-05-09T23:44:22.877Z,100609.91
2023-05-09T23:47:12.237Z,100610.69
2023-05-09T23:50:01.565Z,100626.38
2023-05-09T23:52:51.234Z,100616.78
2023-05-09T23:55:40.603Z,100605.41
2023-05-09T23:58:31.204Z,100618.94
